sensor_id;sensor_type;location;lat;lon;timestamp;P1;durP1;ratioP1;P2;durP2;ratioP2
32329;SDS011;18807;52.434;13.238;2023-09-08T00:01:03;10.55;;;8.60;;
32329;SDS011;18807;52.434;13.238;2023-09-08T00:08:39;10.00;;;8.98;;
32329;SDS011;18807;52.434;13.238;2023-09-08T00:16:17;11.93;;;9.55;;
32329;SDS011;18807;52.434;13.238;2023-09-08T00:23:51;11.90;;;9.60;;
32329;SDS011;18807;52.434;13.238;2023-09-08T00:31:27;14.77;;;9.63;;
32329;SDS011;18807;52.434;13.238;2023-09-08T00:39:01;21.55;;;11.25;;
32329;SDS011;18807;52.434;13.238;2023-09-08T00:46:40;28.20;;;12.65;;
32329;SDS011;18807;52.434;13.238;2023-09-08T00:54:16;11.98;;;9.15;;
32329;SDS011;18807;52.434;13.238;2023-09-08T01:01:53;11.57;;;9.60;;
32329;SDS011;18807;52.434;13.238;2023-09-08T01:09:28;11.35;;;9.48;;
32329;SDS011;18807;52.434;13.238;2023-09-08T01:17:05;11.40;;;9.38;;
32329;SDS011;18807;52.434;13.238;2023-09-08T01:32:51;13.90;;;9.43;;
32329;SDS011;18807;52.434;13.238;2023-09-08T01:40:31;10.82;;;8.65;;
32329;SDS011;18807;52.434;13.238;2023-09-08T01:48:05;10.30;;;8.90;;
32329;SDS011;18807;52.434;13.238;2023-09-08T01:55:42;12.43;;;9.43;;
32329;SDS011;18807;52.434;13.238;2023-09-08T02:03:18;12.63;;;9.68;;
32329;SDS011;18807;52.434;13.238;2023-09-08T02:10:54;15.57;;;10.17;;
32329;SDS011;18807;52.434;13.238;2023-09-08T02:18:28;11.40;;;9.45;;
32329;SDS011;18807;52.434;13.238;2023-09-08T02:26:04;13.93;;;10.73;;
32329;SDS011;18807;52.434;13.238;2023-09-08T02:33:38;16.48;;;10.20;;
32329;SDS011;18807;52.434;13.238;2023-09-08T02:41:14;13.83;;;10.03;;
32329;SDS011;18807;52.434;13.238;2023-09-08T02:48:48;13.90;;;9.70;;
32329;SDS011;18807;52.434;13.238;2023-09-08T02:56:24;9.97;;;8.87;;
32329;SDS011;18807;52.434;13.238;2023-09-08T03:03:58;10.73;;;9.52;;
32329;SDS011;18807;52.434;13.238;2023-09-08T03:11:35;10.20;;;9.10;;
32329;SDS011;18807;52.434;13.238;2023-09-08T03:19:10;15.05;;;9.95;;
32329;SDS011;18807;52.434;13.238;2023-09-08T03:26:46;12.77;;;10.07;;
32329;SDS011;18807;52.434;13.238;2023-09-08T03:34:20;14.25;;;11.30;;
32329;SDS011;18807;52.434;13.238;2023-09-08T03:41:56;13.07;;;10.07;;
32329;SDS011;18807;52.434;13.238;2023-09-08T03:49:31;12.20;;;10.23;;
32329;SDS011;18807;52.434;13.238;2023-09-08T03:57:08;11.35;;;10.15;;
32329;SDS011;18807;52.434;13.238;2023-09-08T04:04:43;14.98;;;10.73;;
32329;SDS011;18807;52.434;13.238;2023-09-08T04:12:20;12.68;;;10.95;;
32329;SDS011;18807;52.434;13.238;2023-09-08T04:19:54;11.68;;;10.45;;
32329;SDS011;18807;52.434;13.238;2023-09-08T04:27:31;15.75;;;11.23;;
32329;SDS011;18807;52.434;13.238;2023-09-08T04:35:08;13.95;;;10.65;;
32329;SDS011;18807;52.434;13.238;2023-09-08T04:42:43;13.20;;;11.43;;
32329;SDS011;18807;52.434;13.238;2023-09-08T04:50:19;13.82;;;11.55;;
32329;SDS011;18807;52.434;13.238;2023-09-08T05:05:30;15.27;;;11.57;;
32329;SDS011;18807;52.434;13.238;2023-09-08T05:13:06;14.73;;;11.50;;
32329;SDS011;18807;52.434;13.238;2023-09-08T05:28:36;11.77;;;10.50;;
32329;SDS011;18807;52.434;13.238;2023-09-08T05:36:12;14.80;;;12.05;;
32329;SDS011;18807;52.434;13.238;2023-09-08T05:43:49;17.35;;;13.77;;
32329;SDS011;18807;52.434;13.238;2023-09-08T05:51:23;15.68;;;12.48;;
32329;SDS011;18807;52.434;13.238;2023-09-08T05:59:02;17.27;;;13.02;;
32329;SDS011;18807;52.434;13.238;2023-09-08T06:06:37;19.05;;;13.95;;
32329;SDS011;18807;52.434;13.238;2023-09-08T06:14:14;17.65;;;12.77;;
32329;SDS011;18807;52.434;13.238;2023-09-08T06:21:49;14.35;;;12.27;;
32329;SDS011;18807;52.434;13.238;2023-09-08T06:29:24;17.73;;;11.93;;
32329;SDS011;18807;52.434;13.238;2023-09-08T06:36:59;14.93;;;11.55;;
32329;SDS011;18807;52.434;13.238;2023-09-08T06:44:34;14.83;;;11.40;;
32329;SDS011;18807;52.434;13.238;2023-09-08T06:52:08;15.10;;;11.43;;
32329;SDS011;18807;52.434;13.238;2023-09-08T06:59:44;14.83;;;11.00;;
32329;SDS011;18807;52.434;13.238;2023-09-08T07:07:19;14.88;;;10.63;;
32329;SDS011;18807;52.434;13.238;2023-09-08T07:14:55;14.97;;;11.60;;
32329;SDS011;18807;52.434;13.238;2023-09-08T07:22:29;12.63;;;10.13;;
32329;SDS011;18807;52.434;13.238;2023-09-08T07:30:07;12.30;;;10.63;;
32329;SDS011;18807;52.434;13.238;2023-09-08T07:37:42;13.55;;;10.20;;
32329;SDS011;18807;52.434;13.238;2023-09-08T07:52:52;13.93;;;9.65;;
32329;SDS011;18807;52.434;13.238;2023-09-08T08:00:29;12.32;;;8.60;;
32329;SDS011;18807;52.434;13.238;2023-09-08T08:08:04;12.68;;;10.07;;
32329;SDS011;18807;52.434;13.238;2023-09-08T08:15:43;14.73;;;8.35;;
32329;SDS011;18807;52.434;13.238;2023-09-08T08:23:19;12.32;;;8.65;;
32329;SDS011;18807;52.434;13.238;2023-09-08T08:30:56;13.07;;;9.50;;
32329;SDS011;18807;52.434;13.238;2023-09-08T08:38:30;11.63;;;7.68;;
32329;SDS011;18807;52.434;13.238;2023-09-08T08:46:08;11.50;;;7.93;;
32329;SDS011;18807;52.434;13.238;2023-09-08T08:53:43;13.45;;;7.20;;
32329;SDS011;18807;52.434;13.238;2023-09-08T09:01:19;9.57;;;7.80;;
32329;SDS011;18807;52.434;13.238;2023-09-08T09:08:54;11.25;;;7.55;;
32329;SDS011;18807;52.434;13.238;2023-09-08T09:16:33;7.85;;;6.57;;
32329;SDS011;18807;52.434;13.238;2023-09-08T09:24:13;7.72;;;6.82;;
32329;SDS011;18807;52.434;13.238;2023-09-08T09:31:56;9.85;;;7.07;;
32329;SDS011;18807;52.434;13.238;2023-09-08T09:39:36;9.63;;;7.25;;
32329;SDS011;18807;52.434;13.238;2023-09-08T09:47:12;7.97;;;6.63;;
32329;SDS011;18807;52.434;13.238;2023-09-08T09:54:47;9.30;;;7.05;;
32329;SDS011;18807;52.434;13.238;2023-09-08T10:02:25;10.50;;;7.65;;
32329;SDS011;18807;52.434;13.238;2023-09-08T10:10:01;11.52;;;7.28;;
32329;SDS011;18807;52.434;13.238;2023-09-08T10:17:39;8.48;;;7.68;;
32329;SDS011;18807;52.434;13.238;2023-09-08T10:25:15;8.60;;;6.57;;
32329;SDS011;18807;52.434;13.238;2023-09-08T10:32:54;8.07;;;6.43;;
32329;SDS011;18807;52.434;13.238;2023-09-08T10:40:30;7.35;;;6.53;;
32329;SDS011;18807;52.434;13.238;2023-09-08T10:48:07;12.05;;;6.43;;
32329;SDS011;18807;52.434;13.238;2023-09-08T10:55:43;6.70;;;6.00;;
32329;SDS011;18807;52.434;13.238;2023-09-08T11:03:52;6.63;;;6.00;;
32329;SDS011;18807;52.434;13.238;2023-09-08T11:11:31;11.30;;;6.97;;
32329;SDS011;18807;52.434;13.238;2023-09-08T11:19:09;6.35;;;5.68;;
32329;SDS011;18807;52.434;13.238;2023-09-08T11:26:48;7.95;;;5.88;;
32329;SDS011;18807;52.434;13.238;2023-09-08T11:34:27;7.28;;;6.53;;
32329;SDS011;18807;52.434;13.238;2023-09-08T11:42:03;6.90;;;5.57;;
32329;SDS011;18807;52.434;13.238;2023-09-08T11:49:39;8.82;;;6.07;;
32329;SDS011;18807;52.434;13.238;2023-09-08T11:57:14;7.93;;;6.38;;
32329;SDS011;18807;52.434;13.238;2023-09-08T12:04:54;6.50;;;5.72;;
32329;SDS011;18807;52.434;13.238;2023-09-08T12:12:29;6.55;;;5.80;;
32329;SDS011;18807;52.434;13.238;2023-09-08T12:20:14;7.10;;;6.25;;
32329;SDS011;18807;52.434;13.238;2023-09-08T12:27:50;6.55;;;5.85;;
32329;SDS011;18807;52.434;13.238;2023-09-08T12:35:27;7.35;;;5.97;;
32329;SDS011;18807;52.434;13.238;2023-09-08T12:43:04;7.70;;;6.18;;
32329;SDS011;18807;52.434;13.238;2023-09-08T12:51:01;8.37;;;6.10;;
32329;SDS011;18807;52.434;13.238;2023-09-08T12:58:35;7.43;;;6.43;;
32329;SDS011;18807;52.434;13.238;2023-09-08T13:06:12;9.43;;;6.18;;
32329;SDS011;18807;52.434;13.238;2023-09-08T13:13:47;8.85;;;6.63;;
32329;SDS011;18807;52.434;13.238;2023-09-08T13:21:23;6.97;;;6.28;;
32329;SDS011;18807;52.434;13.238;2023-09-08T13:28:57;9.95;;;7.22;;
32329;SDS011;18807;52.434;13.238;2023-09-08T13:36:33;8.00;;;6.88;;
32329;SDS011;18807;52.434;13.238;2023-09-08T13:44:08;7.22;;;6.55;;
32329;SDS011;18807;52.434;13.238;2023-09-08T13:51:44;9.38;;;7.10;;
32329;SDS011;18807;52.434;13.238;2023-09-08T13:59:21;7.68;;;6.88;;
32329;SDS011;18807;52.434;13.238;2023-09-08T14:07:00;8.15;;;7.03;;
32329;SDS011;18807;52.434;13.238;2023-09-08T14:14:45;6.63;;;5.93;;
32329;SDS011;18807;52.434;13.238;2023-09-08T14:22:22;7.20;;;6.50;;
32329;SDS011;18807;52.434;13.238;2023-09-08T14:29:57;6.88;;;6.18;;
32329;SDS011;18807;52.434;13.238;2023-09-08T14:37:34;8.07;;;6.65;;
32329;SDS011;18807;52.434;13.238;2023-09-08T14:45:10;15.82;;;6.38;;
32329;SDS011;18807;52.434;13.238;2023-09-08T14:52:46;6.97;;;6.05;;
32329;SDS011;18807;52.434;13.238;2023-09-08T15:00:21;7.63;;;6.43;;
32329;SDS011;18807;52.434;13.238;2023-09-08T15:07:57;7.93;;;6.20;;
32329;SDS011;18807;52.434;13.238;2023-09-08T15:15:31;7.57;;;6.45;;
32329;SDS011;18807;52.434;13.238;2023-09-08T15:23:11;9.40;;;7.20;;
32329;SDS011;18807;52.434;13.238;2023-09-08T15:30:47;6.50;;;5.68;;
32329;SDS011;18807;52.434;13.238;2023-09-08T15:38:24;6.40;;;5.82;;
32329;SDS011;18807;52.434;13.238;2023-09-08T15:45:58;6.72;;;6.13;;
32329;SDS011;18807;52.434;13.238;2023-09-08T15:53:35;6.70;;;6.05;;
32329;SDS011;18807;52.434;13.238;2023-09-08T16:01:09;7.13;;;6.43;;
32329;SDS011;18807;52.434;13.238;2023-09-08T16:08:46;6.47;;;5.63;;
32329;SDS011;18807;52.434;13.238;2023-09-08T16:16:20;6.57;;;5.95;;
32329;SDS011;18807;52.434;13.238;2023-09-08T16:23:56;6.47;;;5.78;;
32329;SDS011;18807;52.434;13.238;2023-09-08T16:31:31;8.88;;;5.93;;
32329;SDS011;18807;52.434;13.238;2023-09-08T16:39:07;8.30;;;5.75;;
32329;SDS011;18807;52.434;13.238;2023-09-08T16:46:41;5.88;;;5.38;;
32329;SDS011;18807;52.434;13.238;2023-09-08T16:54:17;6.82;;;6.13;;
32329;SDS011;18807;52.434;13.238;2023-09-08T17:01:51;7.97;;;5.80;;
32329;SDS011;18807;52.434;13.238;2023-09-08T17:09:28;8.15;;;6.28;;
32329;SDS011;18807;52.434;13.238;2023-09-08T17:17:03;8.30;;;6.45;;
32329;SDS011;18807;52.434;13.238;2023-09-08T17:24:40;7.28;;;5.95;;
32329;SDS011;18807;52.434;13.238;2023-09-08T17:32:14;6.97;;;6.28;;
32329;SDS011;18807;52.434;13.238;2023-09-08T17:39:52;8.40;;;5.97;;
32329;SDS011;18807;52.434;13.238;2023-09-08T17:47:27;8.05;;;6.55;;
32329;SDS011;18807;52.434;13.238;2023-09-08T17:55:03;9.07;;;6.40;;
32329;SDS011;18807;52.434;13.238;2023-09-08T18:02:37;6.30;;;5.45;;
32329;SDS011;18807;52.434;13.238;2023-09-08T18:10:15;7.53;;;6.38;;
32329;SDS011;18807;52.434;13.238;2023-09-08T18:17:51;8.60;;;6.88;;
32329;SDS011;18807;52.434;13.238;2023-09-08T18:25:27;8.38;;;7.35;;
32329;SDS011;18807;52.434;13.238;2023-09-08T18:33:01;8.07;;;6.40;;
32329;SDS011;18807;52.434;13.238;2023-09-08T18:40:45;8.02;;;7.03;;
32329;SDS011;18807;52.434;13.238;2023-09-08T18:48:20;8.13;;;6.68;;
32329;SDS011;18807;52.434;13.238;2023-09-08T18:55:59;8.52;;;6.90;;
32329;SDS011;18807;52.434;13.238;2023-09-08T19:03:37;8.27;;;7.35;;
32329;SDS011;18807;52.434;13.238;2023-09-08T19:11:15;8.57;;;7.40;;
32329;SDS011;18807;52.434;13.238;2023-09-08T19:18:51;11.30;;;7.38;;
32329;SDS011;18807;52.434;13.238;2023-09-08T19:26:27;11.23;;;8.53;;
32329;SDS011;18807;52.434;13.238;2023-09-08T19:34:01;8.75;;;6.97;;
32329;SDS011;18807;52.434;13.238;2023-09-08T19:41:38;8.88;;;6.63;;
32329;SDS011;18807;52.434;13.238;2023-09-08T19:49:13;8.13;;;6.97;;
32329;SDS011;18807;52.434;13.238;2023-09-08T19:56:48;11.33;;;8.13;;
32329;SDS011;18807;52.434;13.238;2023-09-08T20:04:23;11.88;;;9.35;;
32329;SDS011;18807;52.434;13.238;2023-09-08T20:11:59;10.93;;;9.48;;
32329;SDS011;18807;52.434;13.238;2023-09-08T20:19:35;10.88;;;9.25;;
32329;SDS011;18807;52.434;13.238;2023-09-08T20:27:11;11.10;;;9.23;;
32329;SDS011;18807;52.434;13.238;2023-09-08T20:34:46;10.25;;;9.13;;
32329;SDS011;18807;52.434;13.238;2023-09-08T20:42:22;11.38;;;9.73;;
32329;SDS011;18807;52.434;13.238;2023-09-08T20:49:57;10.65;;;9.65;;
32329;SDS011;18807;52.434;13.238;2023-09-08T21:05:07;13.13;;;10.02;;
32329;SDS011;18807;52.434;13.238;2023-09-08T21:12:43;11.48;;;9.45;;
32329;SDS011;18807;52.434;13.238;2023-09-08T21:20:17;11.27;;;10.05;;
32329;SDS011;18807;52.434;13.238;2023-09-08T21:27:54;10.40;;;9.00;;
32329;SDS011;18807;52.434;13.238;2023-09-08T21:35:29;13.82;;;10.63;;
32329;SDS011;18807;52.434;13.238;2023-09-08T21:43:06;11.63;;;10.05;;
32329;SDS011;18807;52.434;13.238;2023-09-08T21:50:40;12.13;;;10.88;;
32329;SDS011;18807;52.434;13.238;2023-09-08T21:58:16;11.90;;;9.97;;
32329;SDS011;18807;52.434;13.238;2023-09-08T22:05:51;12.25;;;10.77;;
32329;SDS011;18807;52.434;13.238;2023-09-08T22:13:27;12.07;;;10.70;;
32329;SDS011;18807;52.434;13.238;2023-09-08T22:21:03;12.95;;;11.25;;
32329;SDS011;18807;52.434;13.238;2023-09-08T22:28:40;12.65;;;10.75;;
32329;SDS011;18807;52.434;13.238;2023-09-08T22:36:18;14.48;;;10.80;;
32329;SDS011;18807;52.434;13.238;2023-09-08T22:43:54;12.07;;;10.30;;
32329;SDS011;18807;52.434;13.238;2023-09-08T22:51:29;12.10;;;10.77;;
32329;SDS011;18807;52.434;13.238;2023-09-08T22:59:05;11.60;;;10.40;;
32329;SDS011;18807;52.434;13.238;2023-09-08T23:06:40;12.90;;;11.00;;
32329;SDS011;18807;52.434;13.238;2023-09-08T23:14:17;12.23;;;11.00;;
32329;SDS011;18807;52.434;13.238;2023-09-08T23:21:53;12.68;;;11.18;;
32329;SDS011;18807;52.434;13.238;2023-09-08T23:29:32;11.65;;;10.43;;
32329;SDS011;18807;52.434;13.238;2023-09-08T23:37:06;12.32;;;10.82;;
32329;SDS011;18807;52.434;13.238;2023-09-08T23:44:42;13.30;;;11.43;;
32329;SDS011;18807;52.434;13.238;2023-09-08T23:52:16;12.07;;;10.75;;
32329;SDS011;18807;52.434;13.238;2023-09-08T23:59:52;14.67;;;11.10;;
